sensor_id;sensor_type;location;lat;lon;timestamp;P1;durP1;ratioP1;P2;durP2;ratioP2
12968;SDS011;6549;53.128;8.182;2022-07-23T00:00:53;3.95;;;2.58;;
12968;SDS011;6549;53.128;8.182;2022-07-23T00:03:53;3.55;;;2.67;;
12968;SDS011;6549;53.128;8.182;2022-07-23T00:06:54;4.88;;;3.25;;
12968;SDS011;6549;53.128;8.182;2022-07-23T00:09:55;6.07;;;3.13;;
12968;SDS011;6549;53.128;8.182;2022-07-23T00:12:55;3.58;;;2.58;;
12968;SDS011;6549;53.128;8.182;2022-07-23T00:15:55;2.67;;;2.47;;
12968;SDS011;6549;53.128;8.182;2022-07-23T00:18:57;3.47;;;2.30;;
12968;SDS011;6549;53.128;8.182;2022-07-23T00:21:57;2.38;;;2.13;;
12968;SDS011;6549;53.128;8.182;2022-07-23T00:24:58;3.40;;;2.38;;
12968;SDS011;6549;53.128;8.182;2022-07-23T00:27:59;4.45;;;2.95;;
12968;SDS011;6549;53.128;8.182;2022-07-23T00:31:01;3.20;;;2.67;;
12968;SDS011;6549;53.128;8.182;2022-07-23T00:34:01;3.30;;;2.50;;
12968;SDS011;6549;53.128;8.182;2022-07-23T00:37:01;3.15;;;2.60;;
12968;SDS011;6549;53.128;8.182;2022-07-23T00:40:02;3.83;;;2.60;;
12968;SDS011;6549;53.128;8.182;2022-07-23T00:43:03;4.28;;;2.53;;
12968;SDS011;6549;53.128;8.182;2022-07-23T00:46:04;4.05;;;2.70;;
12968;SDS011;6549;53.128;8.182;2022-07-23T00:49:04;4.30;;;2.58;;
12968;SDS011;6549;53.128;8.182;2022-07-23T00:52:04;3.80;;;2.45;;
12968;SDS011;6549;53.128;8.182;2022-07-23T00:55:06;2.33;;;2.00;;
12968;SDS011;6549;53.128;8.182;2022-07-23T00:58:08;5.05;;;3.00;;
12968;SDS011;6549;53.128;8.182;2022-07-23T01:01:09;3.80;;;3.35;;
12968;SDS011;6549;53.128;8.182;2022-07-23T01:04:11;4.93;;;2.90;;
12968;SDS011;6549;53.128;8.182;2022-07-23T01:07:11;4.07;;;2.60;;
12968;SDS011;6549;53.128;8.182;2022-07-23T01:10:11;2.72;;;2.38;;
12968;SDS011;6549;53.128;8.182;2022-07-23T01:13:30;2.53;;;2.33;;
12968;SDS011;6549;53.128;8.182;2022-07-23T01:16:31;3.22;;;2.40;;
12968;SDS011;6549;53.128;8.182;2022-07-23T01:19:31;2.83;;;2.38;;
12968;SDS011;6549;53.128;8.182;2022-07-23T01:22:31;2.35;;;2.15;;
12968;SDS011;6549;53.128;8.182;2022-07-23T01:25:32;3.08;;;2.42;;
12968;SDS011;6549;53.128;8.182;2022-07-23T01:28:32;2.70;;;2.50;;
12968;SDS011;6549;53.128;8.182;2022-07-23T01:31:33;3.78;;;3.00;;
12968;SDS011;6549;53.128;8.182;2022-07-23T01:34:33;4.22;;;2.97;;
12968;SDS011;6549;53.128;8.182;2022-07-23T01:37:33;3.13;;;2.63;;
12968;SDS011;6549;53.128;8.182;2022-07-23T01:40:34;2.65;;;2.25;;
12968;SDS011;6549;53.128;8.182;2022-07-23T01:43:34;3.88;;;2.80;;
12968;SDS011;6549;53.128;8.182;2022-07-23T01:46:35;3.92;;;2.78;;
12968;SDS011;6549;53.128;8.182;2022-07-23T01:49:35;3.97;;;2.97;;
12968;SDS011;6549;53.128;8.182;2022-07-23T01:52:35;3.63;;;2.85;;
12968;SDS011;6549;53.128;8.182;2022-07-23T01:55:36;3.80;;;2.67;;
12968;SDS011;6549;53.128;8.182;2022-07-23T01:58:36;4.38;;;2.72;;
12968;SDS011;6549;53.128;8.182;2022-07-23T02:01:36;6.00;;;2.63;;
12968;SDS011;6549;53.128;8.182;2022-07-23T02:04:37;6.75;;;3.55;;
12968;SDS011;6549;53.128;8.182;2022-07-23T02:07:37;4.60;;;3.30;;
12968;SDS011;6549;53.128;8.182;2022-07-23T02:10:38;3.67;;;3.00;;
12968;SDS011;6549;53.128;8.182;2022-07-23T02:13:38;3.10;;;2.80;;
12968;SDS011;6549;53.128;8.182;2022-07-23T02:16:38;3.45;;;2.70;;
12968;SDS011;6549;53.128;8.182;2022-07-23T02:19:39;4.65;;;3.05;;
12968;SDS011;6549;53.128;8.182;2022-07-23T02:22:39;3.15;;;2.85;;
12968;SDS011;6549;53.128;8.182;2022-07-23T02:25:40;4.38;;;3.05;;
12968;SDS011;6549;53.128;8.182;2022-07-23T02:28:40;3.05;;;2.42;;
12968;SDS011;6549;53.128;8.182;2022-07-23T02:31:41;3.30;;;2.75;;
12968;SDS011;6549;53.128;8.182;2022-07-23T02:34:41;4.78;;;2.95;;
12968;SDS011;6549;53.128;8.182;2022-07-23T02:37:41;4.05;;;3.10;;
12968;SDS011;6549;53.128;8.182;2022-07-23T02:40:42;4.82;;;2.80;;
12968;SDS011;6549;53.128;8.182;2022-07-23T02:43:42;4.75;;;2.97;;
12968;SDS011;6549;53.128;8.182;2022-07-23T02:46:43;4.70;;;3.45;;
12968;SDS011;6549;53.128;8.182;2022-07-23T02:49:43;4.68;;;3.20;;
12968;SDS011;6549;53.128;8.182;2022-07-23T02:52:43;5.03;;;3.15;;
12968;SDS011;6549;53.128;8.182;2022-07-23T02:55:44;4.25;;;3.10;;
12968;SDS011;6549;53.128;8.182;2022-07-23T02:58:44;5.32;;;3.03;;
12968;SDS011;6549;53.128;8.182;2022-07-23T03:01:44;4.30;;;3.00;;
12968;SDS011;6549;53.128;8.182;2022-07-23T03:04:45;3.63;;;2.90;;
12968;SDS011;6549;53.128;8.182;2022-07-23T03:07:46;4.50;;;3.40;;
12968;SDS011;6549;53.128;8.182;2022-07-23T03:10:46;8.15;;;5.30;;
12968;SDS011;6549;53.128;8.182;2022-07-23T03:13:46;8.80;;;5.38;;
12968;SDS011;6549;53.128;8.182;2022-07-23T03:16:47;5.15;;;3.78;;
12968;SDS011;6549;53.128;8.182;2022-07-23T03:19:49;3.50;;;3.05;;
12968;SDS011;6549;53.128;8.182;2022-07-23T03:22:49;5.13;;;4.10;;
12968;SDS011;6549;53.128;8.182;2022-07-23T03:25:50;5.30;;;3.70;;
12968;SDS011;6549;53.128;8.182;2022-07-23T03:28:50;4.70;;;3.42;;
12968;SDS011;6549;53.128;8.182;2022-07-23T03:31:51;3.97;;;3.47;;
12968;SDS011;6549;53.128;8.182;2022-07-23T03:34:51;5.93;;;4.25;;
12968;SDS011;6549;53.128;8.182;2022-07-23T03:37:51;5.30;;;4.53;;
12968;SDS011;6549;53.128;8.182;2022-07-23T03:40:52;9.02;;;4.68;;
12968;SDS011;6549;53.128;8.182;2022-07-23T03:43:52;6.88;;;5.03;;
12968;SDS011;6549;53.128;8.182;2022-07-23T03:46:52;5.53;;;4.22;;
12968;SDS011;6549;53.128;8.182;2022-07-23T03:49:52;5.72;;;4.10;;
12968;SDS011;6549;53.128;8.182;2022-07-23T03:52:53;5.03;;;3.88;;
12968;SDS011;6549;53.128;8.182;2022-07-23T03:55:54;6.53;;;4.82;;
12968;SDS011;6549;53.128;8.182;2022-07-23T03:58:54;5.38;;;4.22;;
12968;SDS011;6549;53.128;8.182;2022-07-23T04:01:54;6.18;;;4.10;;
12968;SDS011;6549;53.128;8.182;2022-07-23T04:04:55;5.65;;;4.28;;
12968;SDS011;6549;53.128;8.182;2022-07-23T04:07:55;4.43;;;3.85;;
12968;SDS011;6549;53.128;8.182;2022-07-23T04:10:55;4.45;;;3.80;;
12968;SDS011;6549;53.128;8.182;2022-07-23T04:13:56;5.28;;;3.53;;
12968;SDS011;6549;53.128;8.182;2022-07-23T04:16:56;3.75;;;3.03;;
12968;SDS011;6549;53.128;8.182;2022-07-23T04:19:56;5.15;;;3.25;;
12968;SDS011;6549;53.128;8.182;2022-07-23T04:22:57;4.88;;;3.75;;
12968;SDS011;6549;53.128;8.182;2022-07-23T04:25:57;5.13;;;4.32;;
12968;SDS011;6549;53.128;8.182;2022-07-23T04:28:57;10.52;;;6.90;;
12968;SDS011;6549;53.128;8.182;2022-07-23T04:31:58;9.80;;;6.68;;
12968;SDS011;6549;53.128;8.182;2022-07-23T04:34:58;7.45;;;5.43;;
12968;SDS011;6549;53.128;8.182;2022-07-23T04:37:58;9.82;;;6.63;;
12968;SDS011;6549;53.128;8.182;2022-07-23T04:40:59;8.27;;;5.28;;
12968;SDS011;6549;53.128;8.182;2022-07-23T04:44:01;5.85;;;4.20;;
12968;SDS011;6549;53.128;8.182;2022-07-23T04:47:01;6.35;;;4.70;;
12968;SDS011;6549;53.128;8.182;2022-07-23T04:50:02;8.57;;;5.47;;
12968;SDS011;6549;53.128;8.182;2022-07-23T04:53:02;12.88;;;7.18;;
12968;SDS011;6549;53.128;8.182;2022-07-23T04:56:03;9.55;;;6.28;;
12968;SDS011;6549;53.128;8.182;2022-07-23T04:59:03;10.80;;;6.82;;
12968;SDS011;6549;53.128;8.182;2022-07-23T05:02:03;10.75;;;7.20;;
12968;SDS011;6549;53.128;8.182;2022-07-23T05:05:04;10.32;;;6.53;;
12968;SDS011;6549;53.128;8.182;2022-07-23T05:08:05;12.85;;;7.40;;
12968;SDS011;6549;53.128;8.182;2022-07-23T05:11:05;9.38;;;5.47;;
12968;SDS011;6549;53.128;8.182;2022-07-23T05:14:05;12.63;;;7.78;;
12968;SDS011;6549;53.128;8.182;2022-07-23T05:17:06;11.50;;;8.27;;
12968;SDS011;6549;53.128;8.182;2022-07-23T05:20:08;9.98;;;6.40;;
12968;SDS011;6549;53.128;8.182;2022-07-23T05:23:08;7.90;;;5.32;;
12968;SDS011;6549;53.128;8.182;2022-07-23T05:26:10;10.27;;;6.45;;
12968;SDS011;6549;53.128;8.182;2022-07-23T05:29:13;9.57;;;6.38;;
12968;SDS011;6549;53.128;8.182;2022-07-23T05:32:13;9.38;;;6.45;;
12968;SDS011;6549;53.128;8.182;2022-07-23T05:35:13;10.90;;;7.03;;
12968;SDS011;6549;53.128;8.182;2022-07-23T05:38:14;8.00;;;6.45;;
12968;SDS011;6549;53.128;8.182;2022-07-23T05:41:14;11.82;;;7.25;;
12968;SDS011;6549;53.128;8.182;2022-07-23T05:44:14;9.45;;;5.35;;
12968;SDS011;6549;53.128;8.182;2022-07-23T05:47:15;7.97;;;5.30;;
12968;SDS011;6549;53.128;8.182;2022-07-23T05:50:15;9.10;;;6.15;;
12968;SDS011;6549;53.128;8.182;2022-07-23T05:53:16;7.30;;;5.65;;
12968;SDS011;6549;53.128;8.182;2022-07-23T05:56:18;6.28;;;4.78;;
12968;SDS011;6549;53.128;8.182;2022-07-23T05:59:18;7.30;;;5.35;;
12968;SDS011;6549;53.128;8.182;2022-07-23T06:02:19;6.90;;;4.22;;
12968;SDS011;6549;53.128;8.182;2022-07-23T06:05:20;7.72;;;4.75;;
12968;SDS011;6549;53.128;8.182;2022-07-23T06:08:20;6.53;;;4.22;;
12968;SDS011;6549;53.128;8.182;2022-07-23T06:11:21;7.47;;;3.40;;
12968;SDS011;6549;53.128;8.182;2022-07-23T06:14:21;8.10;;;4.35;;
12968;SDS011;6549;53.128;8.182;2022-07-23T06:17:21;6.07;;;3.85;;
12968;SDS011;6549;53.128;8.182;2022-07-23T06:20:22;5.22;;;3.15;;
12968;SDS011;6549;53.128;8.182;2022-07-23T06:23:22;5.03;;;3.50;;
12968;SDS011;6549;53.128;8.182;2022-07-23T06:26:22;6.32;;;3.42;;
12968;SDS011;6549;53.128;8.182;2022-07-23T06:29:23;4.65;;;3.00;;
12968;SDS011;6549;53.128;8.182;2022-07-23T06:32:23;6.18;;;3.25;;
12968;SDS011;6549;53.128;8.182;2022-07-23T06:35:23;8.27;;;3.15;;
12968;SDS011;6549;53.128;8.182;2022-07-23T06:38:24;5.28;;;2.70;;
12968;SDS011;6549;53.128;8.182;2022-07-23T06:41:24;6.63;;;3.85;;
12968;SDS011;6549;53.128;8.182;2022-07-23T06:44:24;6.07;;;3.38;;
12968;SDS011;6549;53.128;8.182;2022-07-23T06:47:25;4.93;;;3.25;;
12968;SDS011;6549;53.128;8.182;2022-07-23T06:50:25;5.03;;;3.20;;
12968;SDS011;6549;53.128;8.182;2022-07-23T06:53:25;4.78;;;2.85;;
12968;SDS011;6549;53.128;8.182;2022-07-23T06:56:26;7.72;;;3.78;;
12968;SDS011;6549;53.128;8.182;2022-07-23T06:59:26;4.85;;;2.33;;
12968;SDS011;6549;53.128;8.182;2022-07-23T07:02:26;5.97;;;3.35;;
12968;SDS011;6549;53.128;8.182;2022-07-23T07:05:27;7.53;;;3.67;;
12968;SDS011;6549;53.128;8.182;2022-07-23T07:08:27;4.45;;;2.78;;
12968;SDS011;6549;53.128;8.182;2022-07-23T07:11:27;6.72;;;3.00;;
12968;SDS011;6549;53.128;8.182;2022-07-23T07:14:28;5.40;;;2.50;;
12968;SDS011;6549;53.128;8.182;2022-07-23T07:17:28;3.63;;;2.40;;
12968;SDS011;6549;53.128;8.182;2022-07-23T07:20:28;4.53;;;3.15;;
12968;SDS011;6549;53.128;8.182;2022-07-23T07:23:29;5.43;;;3.33;;
12968;SDS011;6549;53.128;8.182;2022-07-23T07:26:29;6.10;;;2.90;;
12968;SDS011;6549;53.128;8.182;2022-07-23T07:29:30;5.60;;;3.00;;
12968;SDS011;6549;53.128;8.182;2022-07-23T07:32:31;5.85;;;3.15;;
12968;SDS011;6549;53.128;8.182;2022-07-23T07:35:32;6.57;;;3.10;;
12968;SDS011;6549;53.128;8.182;2022-07-23T07:38:32;5.55;;;3.55;;
12968;SDS011;6549;53.128;8.182;2022-07-23T07:41:33;7.85;;;3.30;;
12968;SDS011;6549;53.128;8.182;2022-07-23T07:44:33;6.03;;;2.50;;
12968;SDS011;6549;53.128;8.182;2022-07-23T07:47:33;3.63;;;2.55;;
12968;SDS011;6549;53.128;8.182;2022-07-23T07:50:34;5.78;;;3.00;;
12968;SDS011;6549;53.128;8.182;2022-07-23T07:53:34;3.80;;;2.20;;
12968;SDS011;6549;53.128;8.182;2022-07-23T07:56:34;5.30;;;2.47;;
12968;SDS011;6549;53.128;8.182;2022-07-23T07:59:35;5.18;;;3.17;;
12968;SDS011;6549;53.128;8.182;2022-07-23T08:02:39;6.30;;;2.97;;
12968;SDS011;6549;53.128;8.182;2022-07-23T08:05:41;4.55;;;2.58;;
12968;SDS011;6549;53.128;8.182;2022-07-23T08:08:41;4.78;;;2.65;;
12968;SDS011;6549;53.128;8.182;2022-07-23T08:11:41;5.68;;;2.33;;
12968;SDS011;6549;53.128;8.182;2022-07-23T08:14:41;3.22;;;2.47;;
12968;SDS011;6549;53.128;8.182;2022-07-23T08:17:42;4.70;;;2.53;;
12968;SDS011;6549;53.128;8.182;2022-07-23T08:23:45;5.00;;;2.07;;
12968;SDS011;6549;53.128;8.182;2022-07-23T08:26:45;2.38;;;1.58;;
12968;SDS011;6549;53.128;8.182;2022-07-23T08:29:46;2.63;;;1.50;;
12968;SDS011;6549;53.128;8.182;2022-07-23T08:32:50;3.88;;;1.45;;
12968;SDS011;6549;53.128;8.182;2022-07-23T08:35:52;2.08;;;1.30;;
12968;SDS011;6549;53.128;8.182;2022-07-23T08:38:53;2.83;;;1.40;;
12968;SDS011;6549;53.128;8.182;2022-07-23T08:41:54;2.72;;;1.50;;
12968;SDS011;6549;53.128;8.182;2022-07-23T08:44:54;2.85;;;1.40;;
12968;SDS011;6549;53.128;8.182;2022-07-23T08:47:56;1.88;;;1.30;;
12968;SDS011;6549;53.128;8.182;2022-07-23T08:50:59;1.90;;;1.20;;
12968;SDS011;6549;53.128;8.182;2022-07-23T08:54:01;2.50;;;1.20;;
12968;SDS011;6549;53.128;8.182;2022-07-23T08:57:02;1.00;;;0.98;;
12968;SDS011;6549;53.128;8.182;2022-07-23T09:00:03;2.92;;;1.08;;
12968;SDS011;6549;53.128;8.182;2022-07-23T09:03:06;3.42;;;0.95;;
12968;SDS011;6549;53.128;8.182;2022-07-23T09:06:06;3.75;;;0.93;;
12968;SDS011;6549;53.128;8.182;2022-07-23T09:09:19;1.80;;;0.90;;
12968;SDS011;6549;53.128;8.182;2022-07-23T09:12:20;1.85;;;0.90;;
12968;SDS011;6549;53.128;8.182;2022-07-23T09:15:25;3.75;;;0.90;;
12968;SDS011;6549;53.128;8.182;2022-07-23T09:21:56;1.83;;;0.80;;
12968;SDS011;6549;53.128;8.182;2022-07-23T09:25:19;0.85;;;0.80;;
12968;SDS011;6549;53.128;8.182;2022-07-23T09:28:19;2.30;;;0.82;;
12968;SDS011;6549;53.128;8.182;2022-07-23T09:31:20;1.42;;;1.00;;
12968;SDS011;6549;53.128;8.182;2022-07-23T09:34:24;2.00;;;1.08;;
12968;SDS011;6549;53.128;8.182;2022-07-23T09:37:35;2.22;;;1.00;;
12968;SDS011;6549;53.128;8.182;2022-07-23T09:40:35;1.40;;;0.93;;
12968;SDS011;6549;53.128;8.182;2022-07-23T09:43:36;2.35;;;0.80;;
12968;SDS011;6549;53.128;8.182;2022-07-23T09:46:36;1.00;;;0.73;;
12968;SDS011;6549;53.128;8.182;2022-07-23T09:49:39;1.00;;;0.90;;
12968;SDS011;6549;53.128;8.182;2022-07-23T09:55:46;1.55;;;0.90;;
12968;SDS011;6549;53.128;8.182;2022-07-23T09:58:46;2.58;;;0.90;;
12968;SDS011;6549;53.128;8.182;2022-07-23T10:01:50;1.10;;;1.00;;
12968;SDS011;6549;53.128;8.182;2022-07-23T10:04:53;2.75;;;1.02;;
12968;SDS011;6549;53.128;8.182;2022-07-23T10:07:57;1.02;;;0.90;;
12968;SDS011;6549;53.128;8.182;2022-07-23T10:11:01;2.85;;;1.00;;
12968;SDS011;6549;53.128;8.182;2022-07-23T10:14:02;1.20;;;1.00;;
12968;SDS011;6549;53.128;8.182;2022-07-23T10:17:05;2.00;;;0.90;;
12968;SDS011;6549;53.128;8.182;2022-07-23T10:20:05;1.60;;;0.80;;
12968;SDS011;6549;53.128;8.182;2022-07-23T10:26:32;2.38;;;0.80;;
12968;SDS011;6549;53.128;8.182;2022-07-23T10:29:51;2.03;;;0.93;;
12968;SDS011;6549;53.128;8.182;2022-07-23T10:40:14;1.65;;;0.80;;
12968;SDS011;6549;53.128;8.182;2022-07-23T10:43:15;2.28;;;0.75;;
12968;SDS011;6549;53.128;8.182;2022-07-23T10:46:21;2.33;;;0.80;;
12968;SDS011;6549;53.128;8.182;2022-07-23T10:49:36;0.80;;;0.73;;
12968;SDS011;6549;53.128;8.182;2022-07-23T10:52:36;2.22;;;0.77;;
12968;SDS011;6549;53.128;8.182;2022-07-23T10:58:47;2.23;;;0.97;;
12968;SDS011;6549;53.128;8.182;2022-07-23T11:01:48;1.00;;;0.90;;
12968;SDS011;6549;53.128;8.182;2022-07-23T11:04:50;1.05;;;0.80;;
12968;SDS011;6549;53.128;8.182;2022-07-23T11:14:04;0.77;;;0.77;;
12968;SDS011;6549;53.128;8.182;2022-07-23T11:17:09;1.20;;;0.68;;
12968;SDS011;6549;53.128;8.182;2022-07-23T11:20:20;1.10;;;0.80;;
12968;SDS011;6549;53.128;8.182;2022-07-23T11:26:56;1.23;;;0.70;;
12968;SDS011;6549;53.128;8.182;2022-07-23T11:29:58;2.42;;;1.00;;
12968;SDS011;6549;53.128;8.182;2022-07-23T11:36:08;1.30;;;0.80;;
12968;SDS011;6549;53.128;8.182;2022-07-23T11:39:08;1.60;;;0.90;;
12968;SDS011;6549;53.128;8.182;2022-07-23T11:42:09;1.75;;;0.93;;
12968;SDS011;6549;53.128;8.182;2022-07-23T11:45:09;0.98;;;0.88;;
12968;SDS011;6549;53.128;8.182;2022-07-23T11:48:20;0.57;;;0.57;;
12968;SDS011;6549;53.128;8.182;2022-07-23T11:51:26;0.85;;;0.85;;
12968;SDS011;6549;53.128;8.182;2022-07-23T11:54:26;0.70;;;0.70;;
12968;SDS011;6549;53.128;8.182;2022-07-23T11:57:28;1.80;;;0.80;;
12968;SDS011;6549;53.128;8.182;2022-07-23T12:00:32;2.35;;;0.75;;
12968;SDS011;6549;53.128;8.182;2022-07-23T12:03:33;1.30;;;0.77;;
12968;SDS011;6549;53.128;8.182;2022-07-23T12:06:37;2.83;;;0.82;;
12968;SDS011;6549;53.128;8.182;2022-07-23T12:09:38;1.75;;;0.70;;
12968;SDS011;6549;53.128;8.182;2022-07-23T12:12:48;1.38;;;0.80;;
12968;SDS011;6549;53.128;8.182;2022-07-23T12:15:52;1.98;;;0.82;;
12968;SDS011;6549;53.128;8.182;2022-07-23T12:18:53;1.65;;;0.80;;
12968;SDS011;6549;53.128;8.182;2022-07-23T12:21:53;1.63;;;0.70;;
12968;SDS011;6549;53.128;8.182;2022-07-23T12:24:55;2.22;;;0.98;;
12968;SDS011;6549;53.128;8.182;2022-07-23T12:28:02;3.58;;;0.90;;
12968;SDS011;6549;53.128;8.182;2022-07-23T12:31:03;2.55;;;1.08;;
12968;SDS011;6549;53.128;8.182;2022-07-23T12:34:13;1.58;;;0.80;;
12968;SDS011;6549;53.128;8.182;2022-07-23T12:37:28;2.00;;;0.80;;
12968;SDS011;6549;53.128;8.182;2022-07-23T12:40:34;2.85;;;0.82;;
12968;SDS011;6549;53.128;8.182;2022-07-23T12:43:45;1.38;;;0.75;;
12968;SDS011;6549;53.128;8.182;2022-07-23T12:46:49;2.42;;;0.85;;
12968;SDS011;6549;53.128;8.182;2022-07-23T12:49:51;1.90;;;0.90;;
12968;SDS011;6549;53.128;8.182;2022-07-23T12:53:00;1.65;;;0.90;;
12968;SDS011;6549;53.128;8.182;2022-07-23T12:56:05;4.05;;;0.95;;
12968;SDS011;6549;53.128;8.182;2022-07-23T12:59:08;2.38;;;1.02;;
12968;SDS011;6549;53.128;8.182;2022-07-23T13:02:10;1.08;;;0.90;;
12968;SDS011;6549;53.128;8.182;2022-07-23T13:05:11;1.15;;;0.70;;
12968;SDS011;6549;53.128;8.182;2022-07-23T13:08:11;3.05;;;1.05;;
12968;SDS011;6549;53.128;8.182;2022-07-23T13:11:11;1.95;;;0.90;;
12968;SDS011;6549;53.128;8.182;2022-07-23T13:14:12;1.90;;;1.10;;
12968;SDS011;6549;53.128;8.182;2022-07-23T13:17:13;2.00;;;1.00;;
12968;SDS011;6549;53.128;8.182;2022-07-23T13:20:13;1.50;;;0.93;;
12968;SDS011;6549;53.128;8.182;2022-07-23T13:23:14;1.80;;;1.00;;
12968;SDS011;6549;53.128;8.182;2022-07-23T13:26:15;3.50;;;1.00;;
12968;SDS011;6549;53.128;8.182;2022-07-23T13:29:16;4.28;;;1.20;;
12968;SDS011;6549;53.128;8.182;2022-07-23T13:32:16;3.90;;;1.10;;
12968;SDS011;6549;53.128;8.182;2022-07-23T13:35:16;1.75;;;1.17;;
12968;SDS011;6549;53.128;8.182;2022-07-23T13:38:17;5.32;;;1.05;;
12968;SDS011;6549;53.128;8.182;2022-07-23T13:41:18;1.63;;;1.00;;
12968;SDS011;6549;53.128;8.182;2022-07-23T13:44:19;3.58;;;0.95;;
12968;SDS011;6549;53.128;8.182;2022-07-23T13:47:19;2.13;;;1.20;;
12968;SDS011;6549;53.128;8.182;2022-07-23T13:50:20;2.55;;;1.02;;
12968;SDS011;6549;53.128;8.182;2022-07-23T13:53:21;2.15;;;1.15;;
12968;SDS011;6549;53.128;8.182;2022-07-23T13:56:23;1.42;;;0.93;;
12968;SDS011;6549;53.128;8.182;2022-07-23T13:59:23;1.40;;;0.90;;
12968;SDS011;6549;53.128;8.182;2022-07-23T14:02:24;0.88;;;0.80;;
12968;SDS011;6549;53.128;8.182;2022-07-23T14:05:25;2.35;;;0.90;;
12968;SDS011;6549;53.128;8.182;2022-07-23T14:08:25;1.10;;;0.80;;
12968;SDS011;6549;53.128;8.182;2022-07-23T14:11:25;1.23;;;0.70;;
12968;SDS011;6549;53.128;8.182;2022-07-23T14:14:26;2.60;;;0.90;;
12968;SDS011;6549;53.128;8.182;2022-07-23T14:17:26;2.10;;;1.00;;
12968;SDS011;6549;53.128;8.182;2022-07-23T14:20:27;0.77;;;0.73;;
12968;SDS011;6549;53.128;8.182;2022-07-23T14:23:27;2.78;;;1.05;;
12968;SDS011;6549;53.128;8.182;2022-07-23T14:26:28;2.08;;;1.05;;
12968;SDS011;6549;53.128;8.182;2022-07-23T14:29:29;4.05;;;1.10;;
12968;SDS011;6549;53.128;8.182;2022-07-23T14:32:30;2.90;;;1.00;;
12968;SDS011;6549;53.128;8.182;2022-07-23T14:35:30;2.75;;;1.20;;
12968;SDS011;6549;53.128;8.182;2022-07-23T14:38:30;1.63;;;1.25;;
12968;SDS011;6549;53.128;8.182;2022-07-23T14:41:31;2.42;;;1.10;;
12968;SDS011;6549;53.128;8.182;2022-07-23T14:44:31;3.78;;;1.15;;
12968;SDS011;6549;53.128;8.182;2022-07-23T14:47:31;2.40;;;1.20;;
12968;SDS011;6549;53.128;8.182;2022-07-23T14:50:32;1.23;;;1.08;;
12968;SDS011;6549;53.128;8.182;2022-07-23T14:53:32;3.83;;;1.20;;
12968;SDS011;6549;53.128;8.182;2022-07-23T14:56:32;1.95;;;1.00;;
12968;SDS011;6549;53.128;8.182;2022-07-23T14:59:33;2.65;;;1.20;;
12968;SDS011;6549;53.128;8.182;2022-07-23T15:02:34;2.22;;;1.15;;
12968;SDS011;6549;53.128;8.182;2022-07-23T15:05:34;2.47;;;1.40;;
12968;SDS011;6549;53.128;8.182;2022-07-23T15:08:34;2.70;;;1.27;;
12968;SDS011;6549;53.128;8.182;2022-07-23T15:11:35;2.03;;;1.23;;
12968;SDS011;6549;53.128;8.182;2022-07-23T15:14:36;3.25;;;1.48;;
12968;SDS011;6549;53.128;8.182;2022-07-23T15:17:36;2.42;;;1.20;;
12968;SDS011;6549;53.128;8.182;2022-07-23T15:20:37;1.60;;;1.10;;
12968;SDS011;6549;53.128;8.182;2022-07-23T15:23:37;2.72;;;1.33;;
12968;SDS011;6549;53.128;8.182;2022-07-23T15:26:39;2.25;;;1.10;;
12968;SDS011;6549;53.128;8.182;2022-07-23T15:29:39;1.23;;;1.15;;
12968;SDS011;6549;53.128;8.182;2022-07-23T15:32:40;2.42;;;1.40;;
12968;SDS011;6549;53.128;8.182;2022-07-23T15:35:40;2.58;;;1.30;;
12968;SDS011;6549;53.128;8.182;2022-07-23T15:38:40;1.65;;;1.20;;
12968;SDS011;6549;53.128;8.182;2022-07-23T15:41:41;2.55;;;1.33;;
12968;SDS011;6549;53.128;8.182;2022-07-23T15:44:41;2.45;;;1.15;;
12968;SDS011;6549;53.128;8.182;2022-07-23T15:47:43;2.83;;;1.47;;
12968;SDS011;6549;53.128;8.182;2022-07-23T15:50:43;2.63;;;1.40;;
12968;SDS011;6549;53.128;8.182;2022-07-23T15:53:43;3.13;;;1.20;;
12968;SDS011;6549;53.128;8.182;2022-07-23T15:56:44;2.67;;;1.50;;
12968;SDS011;6549;53.128;8.182;2022-07-23T15:59:44;2.50;;;1.20;;
12968;SDS011;6549;53.128;8.182;2022-07-23T16:02:45;2.58;;;1.45;;
12968;SDS011;6549;53.128;8.182;2022-07-23T16:05:45;1.40;;;1.30;;
12968;SDS011;6549;53.128;8.182;2022-07-23T16:08:45;2.33;;;1.35;;
12968;SDS011;6549;53.128;8.182;2022-07-23T16:11:46;5.82;;;3.00;;
12968;SDS011;6549;53.128;8.182;2022-07-23T16:14:46;2.08;;;1.40;;
12968;SDS011;6549;53.128;8.182;2022-07-23T16:17:47;2.30;;;1.40;;
12968;SDS011;6549;53.128;8.182;2022-07-23T16:20:47;3.78;;;1.30;;
12968;SDS011;6549;53.128;8.182;2022-07-23T16:23:49;1.70;;;1.40;;
12968;SDS011;6549;53.128;8.182;2022-07-23T16:26:50;2.90;;;1.40;;
12968;SDS011;6549;53.128;8.182;2022-07-23T16:29:50;3.42;;;1.90;;
12968;SDS011;6549;53.128;8.182;2022-07-23T16:32:51;1.98;;;1.38;;
12968;SDS011;6549;53.128;8.182;2022-07-23T16:35:51;3.38;;;1.88;;
12968;SDS011;6549;53.128;8.182;2022-07-23T16:38:52;2.95;;;1.70;;
12968;SDS011;6549;53.128;8.182;2022-07-23T16:41:52;3.17;;;1.48;;
12968;SDS011;6549;53.128;8.182;2022-07-23T16:44:52;2.28;;;1.70;;
12968;SDS011;6549;53.128;8.182;2022-07-23T16:47:52;2.08;;;1.40;;
12968;SDS011;6549;53.128;8.182;2022-07-23T16:50:53;3.03;;;1.60;;
12968;SDS011;6549;53.128;8.182;2022-07-23T16:53:53;2.33;;;1.50;;
12968;SDS011;6549;53.128;8.182;2022-07-23T16:56:55;2.47;;;1.50;;
12968;SDS011;6549;53.128;8.182;2022-07-23T16:59:56;6.65;;;1.90;;
12968;SDS011;6549;53.128;8.182;2022-07-23T17:02:56;2.40;;;1.48;;
12968;SDS011;6549;53.128;8.182;2022-07-23T17:05:57;3.00;;;1.55;;
12968;SDS011;6549;53.128;8.182;2022-07-23T17:08:57;1.85;;;1.35;;
12968;SDS011;6549;53.128;8.182;2022-07-23T17:11:58;2.47;;;1.40;;
12968;SDS011;6549;53.128;8.182;2022-07-23T17:14:58;2.60;;;1.40;;
12968;SDS011;6549;53.128;8.182;2022-07-23T17:17:59;1.60;;;1.50;;
12968;SDS011;6549;53.128;8.182;2022-07-23T17:20:59;2.08;;;1.40;;
12968;SDS011;6549;53.128;8.182;2022-07-23T17:23:59;3.25;;;1.42;;
12968;SDS011;6549;53.128;8.182;2022-07-23T17:27:00;3.33;;;1.45;;
12968;SDS011;6549;53.128;8.182;2022-07-23T17:30:01;3.15;;;1.60;;
12968;SDS011;6549;53.128;8.182;2022-07-23T17:33:02;2.88;;;1.40;;
12968;SDS011;6549;53.128;8.182;2022-07-23T17:36:04;2.35;;;1.42;;
12968;SDS011;6549;53.128;8.182;2022-07-23T17:39:05;1.90;;;1.70;;
12968;SDS011;6549;53.128;8.182;2022-07-23T17:42:06;1.60;;;1.38;;
12968;SDS011;6549;53.128;8.182;2022-07-23T17:45:07;1.60;;;1.20;;
12968;SDS011;6549;53.128;8.182;2022-07-23T17:48:09;3.40;;;1.58;;
12968;SDS011;6549;53.128;8.182;2022-07-23T17:51:10;1.40;;;1.20;;
12968;SDS011;6549;53.128;8.182;2022-07-23T17:54:10;2.03;;;1.30;;
12968;SDS011;6549;53.128;8.182;2022-07-23T17:57:14;2.67;;;1.58;;
12968;SDS011;6549;53.128;8.182;2022-07-23T18:00:16;2.72;;;1.40;;
12968;SDS011;6549;53.128;8.182;2022-07-23T18:03:19;2.65;;;1.50;;
12968;SDS011;6549;53.128;8.182;2022-07-23T18:06:20;2.25;;;1.40;;
12968;SDS011;6549;53.128;8.182;2022-07-23T18:09:20;1.75;;;1.40;;
12968;SDS011;6549;53.128;8.182;2022-07-23T18:12:21;1.77;;;1.50;;
12968;SDS011;6549;53.128;8.182;2022-07-23T18:15:21;2.35;;;1.50;;
12968;SDS011;6549;53.128;8.182;2022-07-23T18:18:21;2.03;;;1.45;;
12968;SDS011;6549;53.128;8.182;2022-07-23T18:21:22;1.85;;;1.67;;
12968;SDS011;6549;53.128;8.182;2022-07-23T18:24:22;2.25;;;1.48;;
12968;SDS011;6549;53.128;8.182;2022-07-23T18:27:24;4.32;;;1.35;;
12968;SDS011;6549;53.128;8.182;2022-07-23T18:30:25;2.88;;;1.90;;
12968;SDS011;6549;53.128;8.182;2022-07-23T18:33:25;3.45;;;1.73;;
12968;SDS011;6549;53.128;8.182;2022-07-23T18:36:26;3.15;;;1.60;;
12968;SDS011;6549;53.128;8.182;2022-07-23T18:39:26;3.30;;;1.75;;
12968;SDS011;6549;53.128;8.182;2022-07-23T18:42:27;4.20;;;1.85;;
12968;SDS011;6549;53.128;8.182;2022-07-23T18:45:28;2.63;;;1.67;;
12968;SDS011;6549;53.128;8.182;2022-07-23T18:48:28;2.45;;;1.80;;
12968;SDS011;6549;53.128;8.182;2022-07-23T18:51:29;3.35;;;2.00;;
12968;SDS011;6549;53.128;8.182;2022-07-23T18:54:29;3.33;;;1.80;;
12968;SDS011;6549;53.128;8.182;2022-07-23T18:57:29;3.33;;;1.88;;
12968;SDS011;6549;53.128;8.182;2022-07-23T19:00:30;2.88;;;1.80;;
12968;SDS011;6549;53.128;8.182;2022-07-23T19:03:32;2.70;;;1.60;;